sensor_id;sensor_type;location;lat;lon;timestamp;P1;durP1;ratioP1;P2;durP2;ratioP2
8254;SDS011;4167;48.162;11.542;2023-03-20T00:02:01;408.87;;;85.43;;
8254;SDS011;4167;48.162;11.542;2023-03-20T00:04:27;402.87;;;83.57;;
8254;SDS011;4167;48.162;11.542;2023-03-20T00:06:54;387.40;;;81.37;;
8254;SDS011;4167;48.162;11.542;2023-03-20T00:09:20;310.57;;;76.47;;
8254;SDS011;4167;48.162;11.542;2023-03-20T00:11:47;407.47;;;85.30;;
8254;SDS011;4167;48.162;11.542;2023-03-20T00:14:16;406.43;;;83.93;;
8254;SDS011;4167;48.162;11.542;2023-03-20T00:16:44;372.07;;;81.00;;
8254;SDS011;4167;48.162;11.542;2023-03-20T00:19:14;304.33;;;76.67;;
8254;SDS011;4167;48.162;11.542;2023-03-20T00:21:42;340.10;;;80.07;;
8254;SDS011;4167;48.162;11.542;2023-03-20T00:24:09;369.53;;;84.80;;
8254;SDS011;4167;48.162;11.542;2023-03-20T00:26:37;369.77;;;83.90;;
8254;SDS011;4167;48.162;11.542;2023-03-20T00:29:04;309.90;;;80.80;;
8254;SDS011;4167;48.162;11.542;2023-03-20T00:31:31;318.27;;;83.47;;
8254;SDS011;4167;48.162;11.542;2023-03-20T00:34:00;416.53;;;94.40;;
8254;SDS011;4167;48.162;11.542;2023-03-20T00:36:30;380.37;;;88.87;;
8254;SDS011;4167;48.162;11.542;2023-03-20T00:38:57;301.43;;;82.17;;
8254;SDS011;4167;48.162;11.542;2023-03-20T00:41:24;375.73;;;87.47;;
8254;SDS011;4167;48.162;11.542;2023-03-20T00:43:52;443.10;;;90.53;;
8254;SDS011;4167;48.162;11.542;2023-03-20T00:46:20;351.07;;;82.17;;
8254;SDS011;4167;48.162;11.542;2023-03-20T00:48:47;371.00;;;87.20;;
8254;SDS011;4167;48.162;11.542;2023-03-20T00:51:14;402.53;;;87.53;;
8254;SDS011;4167;48.162;11.542;2023-03-20T00:53:42;341.70;;;82.67;;
8254;SDS011;4167;48.162;11.542;2023-03-20T00:56:13;405.87;;;89.20;;
8254;SDS011;4167;48.162;11.542;2023-03-20T00:58:52;368.00;;;84.30;;
8254;SDS011;4167;48.162;11.542;2023-03-20T01:01:18;325.67;;;82.97;;
8254;SDS011;4167;48.162;11.542;2023-03-20T01:03:45;350.57;;;85.13;;
8254;SDS011;4167;48.162;11.542;2023-03-20T01:06:11;402.43;;;90.33;;
8254;SDS011;4167;48.162;11.542;2023-03-20T01:08:38;333.73;;;78.23;;
8254;SDS011;4167;48.162;11.542;2023-03-20T01:11:08;328.40;;;81.33;;
8254;SDS011;4167;48.162;11.542;2023-03-20T01:13:35;252.77;;;73.83;;
8254;SDS011;4167;48.162;11.542;2023-03-20T01:16:04;371.47;;;91.00;;
8254;SDS011;4167;48.162;11.542;2023-03-20T01:18:30;382.33;;;82.07;;
8254;SDS011;4167;48.162;11.542;2023-03-20T01:20:57;313.07;;;76.27;;
8254;SDS011;4167;48.162;11.542;2023-03-20T01:23:23;248.43;;;72.73;;
8254;SDS011;4167;48.162;11.542;2023-03-20T01:25:50;266.70;;;72.40;;
8254;SDS011;4167;48.162;11.542;2023-03-20T01:28:19;310.80;;;76.20;;
8254;SDS011;4167;48.162;11.542;2023-03-20T01:30:47;305.90;;;73.40;;
8254;SDS011;4167;48.162;11.542;2023-03-20T01:33:15;287.83;;;75.73;;
8254;SDS011;4167;48.162;11.542;2023-03-20T01:35:42;325.17;;;81.93;;
8254;SDS011;4167;48.162;11.542;2023-03-20T01:38:10;324.40;;;80.60;;
8254;SDS011;4167;48.162;11.542;2023-03-20T01:40:40;321.77;;;80.27;;
8254;SDS011;4167;48.162;11.542;2023-03-20T01:43:12;299.63;;;79.43;;
8254;SDS011;4167;48.162;11.542;2023-03-20T01:45:41;338.53;;;76.57;;
8254;SDS011;4167;48.162;11.542;2023-03-20T01:48:14;330.83;;;75.77;;
8254;SDS011;4167;48.162;11.542;2023-03-20T01:50:42;271.63;;;69.73;;
8254;SDS011;4167;48.162;11.542;2023-03-20T01:53:09;266.77;;;70.40;;
8254;SDS011;4167;48.162;11.542;2023-03-20T01:55:39;279.80;;;74.17;;
8254;SDS011;4167;48.162;11.542;2023-03-20T01:58:08;361.53;;;90.00;;
8254;SDS011;4167;48.162;11.542;2023-03-20T02:00:38;292.80;;;82.03;;
8254;SDS011;4167;48.162;11.542;2023-03-20T02:03:06;264.93;;;74.17;;
8254;SDS011;4167;48.162;11.542;2023-03-20T02:05:33;283.70;;;73.87;;
8254;SDS011;4167;48.162;11.542;2023-03-20T02:08:16;252.53;;;70.37;;
8254;SDS011;4167;48.162;11.542;2023-03-20T02:10:48;281.20;;;70.50;;
8254;SDS011;4167;48.162;11.542;2023-03-20T02:13:15;274.27;;;70.30;;
8254;SDS011;4167;48.162;11.542;2023-03-20T02:15:54;241.93;;;67.53;;
8254;SDS011;4167;48.162;11.542;2023-03-20T02:18:28;239.30;;;67.50;;
8254;SDS011;4167;48.162;11.542;2023-03-20T02:23:54;254.37;;;68.30;;
8254;SDS011;4167;48.162;11.542;2023-03-20T02:26:45;221.20;;;66.80;;
8254;SDS011;4167;48.162;11.542;2023-03-20T02:38:13;290.07;;;71.60;;
8254;SDS011;4167;48.162;11.542;2023-03-20T02:40:46;266.43;;;69.17;;
8254;SDS011;4167;48.162;11.542;2023-03-20T02:43:19;267.10;;;70.90;;
8254;SDS011;4167;48.162;11.542;2023-03-20T02:45:51;274.40;;;71.40;;
8254;SDS011;4167;48.162;11.542;2023-03-20T02:48:23;305.67;;;72.50;;
8254;SDS011;4167;48.162;11.542;2023-03-20T02:50:57;303.70;;;73.93;;
8254;SDS011;4167;48.162;11.542;2023-03-20T02:53:30;271.43;;;70.10;;
8254;SDS011;4167;48.162;11.542;2023-03-20T02:56:02;384.53;;;80.53;;
8254;SDS011;4167;48.162;11.542;2023-03-20T02:58:37;281.07;;;72.70;;
8254;SDS011;4167;48.162;11.542;2023-03-20T03:01:09;268.73;;;73.03;;
8254;SDS011;4167;48.162;11.542;2023-03-20T03:03:40;275.10;;;74.77;;
8254;SDS011;4167;48.162;11.542;2023-03-20T03:06:09;372.97;;;82.80;;
8254;SDS011;4167;48.162;11.542;2023-03-20T03:08:39;313.80;;;76.60;;
8254;SDS011;4167;48.162;11.542;2023-03-20T03:11:09;230.97;;;70.27;;
8254;SDS011;4167;48.162;11.542;2023-03-20T03:13:37;311.57;;;78.47;;
8254;SDS011;4167;48.162;11.542;2023-03-20T03:16:09;326.73;;;80.90;;
8254;SDS011;4167;48.162;11.542;2023-03-20T03:18:39;285.07;;;76.57;;
8254;SDS011;4167;48.162;11.542;2023-03-20T03:21:07;284.37;;;78.00;;
8254;SDS011;4167;48.162;11.542;2023-03-20T03:23:39;297.53;;;80.93;;
8254;SDS011;4167;48.162;11.542;2023-03-20T03:26:08;309.93;;;83.13;;
8254;SDS011;4167;48.162;11.542;2023-03-20T03:28:36;337.97;;;89.23;;
8254;SDS011;4167;48.162;11.542;2023-03-20T03:31:06;309.00;;;91.23;;
8254;SDS011;4167;48.162;11.542;2023-03-20T03:33:34;302.10;;;90.63;;
8254;SDS011;4167;48.162;11.542;2023-03-20T03:36:04;399.70;;;105.83;;
8254;SDS011;4167;48.162;11.542;2023-03-20T03:38:38;342.90;;;93.53;;
8254;SDS011;4167;48.162;11.542;2023-03-20T03:41:12;342.53;;;91.67;;
8254;SDS011;4167;48.162;11.542;2023-03-20T03:43:45;270.90;;;79.43;;
8254;SDS011;4167;48.162;11.542;2023-03-20T03:46:16;255.50;;;82.20;;
8254;SDS011;4167;48.162;11.542;2023-03-20T03:48:46;334.43;;;91.57;;
8254;SDS011;4167;48.162;11.542;2023-03-20T03:51:16;293.33;;;91.10;;
8254;SDS011;4167;48.162;11.542;2023-03-20T03:53:48;346.87;;;99.87;;
8254;SDS011;4167;48.162;11.542;2023-03-20T03:56:19;279.93;;;92.83;;
8254;SDS011;4167;48.162;11.542;2023-03-20T03:58:47;341.40;;;93.63;;
8254;SDS011;4167;48.162;11.542;2023-03-20T04:01:15;288.60;;;89.47;;
8254;SDS011;4167;48.162;11.542;2023-03-20T04:03:45;289.40;;;86.40;;
8254;SDS011;4167;48.162;11.542;2023-03-20T04:06:14;297.20;;;89.53;;
8254;SDS011;4167;48.162;11.542;2023-03-20T04:08:41;418.67;;;100.67;;
8254;SDS011;4167;48.162;11.542;2023-03-20T04:11:10;290.63;;;80.30;;
8254;SDS011;4167;48.162;11.542;2023-03-20T04:13:39;213.87;;;72.10;;
8254;SDS011;4167;48.162;11.542;2023-03-20T04:16:07;310.10;;;84.27;;
8254;SDS011;4167;48.162;11.542;2023-03-20T04:18:36;346.40;;;86.97;;
8254;SDS011;4167;48.162;11.542;2023-03-20T04:21:02;343.17;;;91.30;;
8254;SDS011;4167;48.162;11.542;2023-03-20T04:23:30;369.37;;;94.93;;
8254;SDS011;4167;48.162;11.542;2023-03-20T04:25:57;356.07;;;98.53;;
8254;SDS011;4167;48.162;11.542;2023-03-20T04:28:25;398.43;;;118.40;;
8254;SDS011;4167;48.162;11.542;2023-03-20T04:30:51;388.90;;;119.30;;
8254;SDS011;4167;48.162;11.542;2023-03-20T04:33:18;397.87;;;114.03;;
8254;SDS011;4167;48.162;11.542;2023-03-20T04:35:45;313.07;;;102.87;;
8254;SDS011;4167;48.162;11.542;2023-03-20T04:38:11;312.47;;;102.20;;
8254;SDS011;4167;48.162;11.542;2023-03-20T04:40:38;333.27;;;105.07;;
8254;SDS011;4167;48.162;11.542;2023-03-20T04:43:05;349.07;;;94.07;;
8254;SDS011;4167;48.162;11.542;2023-03-20T04:45:33;287.47;;;89.13;;
8254;SDS011;4167;48.162;11.542;2023-03-20T04:47:59;358.00;;;98.57;;
8254;SDS011;4167;48.162;11.542;2023-03-20T04:50:26;411.90;;;101.43;;
8254;SDS011;4167;48.162;11.542;2023-03-20T04:52:52;349.50;;;89.27;;
8254;SDS011;4167;48.162;11.542;2023-03-20T04:55:19;251.33;;;83.70;;
8254;SDS011;4167;48.162;11.542;2023-03-20T04:57:46;206.47;;;78.83;;
8254;SDS011;4167;48.162;11.542;2023-03-20T05:00:13;334.20;;;91.70;;
8254;SDS011;4167;48.162;11.542;2023-03-20T05:02:41;398.70;;;93.97;;
8254;SDS011;4167;48.162;11.542;2023-03-20T05:05:08;333.23;;;91.90;;
8254;SDS011;4167;48.162;11.542;2023-03-20T05:07:34;270.20;;;83.47;;
8254;SDS011;4167;48.162;11.542;2023-03-20T05:10:01;356.30;;;94.10;;
8254;SDS011;4167;48.162;11.542;2023-03-20T05:12:28;266.97;;;90.50;;
8254;SDS011;4167;48.162;11.542;2023-03-20T05:14:54;376.90;;;99.13;;
8254;SDS011;4167;48.162;11.542;2023-03-20T05:17:21;353.57;;;95.97;;
8254;SDS011;4167;48.162;11.542;2023-03-20T05:19:48;246.70;;;86.67;;
8254;SDS011;4167;48.162;11.542;2023-03-20T05:22:15;284.00;;;86.57;;
8254;SDS011;4167;48.162;11.542;2023-03-20T05:24:41;261.57;;;83.50;;
8254;SDS011;4167;48.162;11.542;2023-03-20T05:27:08;367.27;;;93.57;;
8254;SDS011;4167;48.162;11.542;2023-03-20T05:29:34;329.10;;;93.00;;
8254;SDS011;4167;48.162;11.542;2023-03-20T05:32:01;348.80;;;101.23;;
8254;SDS011;4167;48.162;11.542;2023-03-20T05:34:27;314.40;;;94.33;;
8254;SDS011;4167;48.162;11.542;2023-03-20T05:36:55;283.90;;;95.63;;
8254;SDS011;4167;48.162;11.542;2023-03-20T05:39:22;329.83;;;96.30;;
8254;SDS011;4167;48.162;11.542;2023-03-20T05:41:48;317.70;;;99.57;;
8254;SDS011;4167;48.162;11.542;2023-03-20T05:44:15;366.40;;;101.57;;
8254;SDS011;4167;48.162;11.542;2023-03-20T05:46:41;317.27;;;98.53;;
8254;SDS011;4167;48.162;11.542;2023-03-20T05:49:08;355.40;;;99.20;;
8254;SDS011;4167;48.162;11.542;2023-03-20T05:51:35;354.80;;;105.60;;
8254;SDS011;4167;48.162;11.542;2023-03-20T05:54:03;321.63;;;104.90;;
8254;SDS011;4167;48.162;11.542;2023-03-20T05:56:29;399.23;;;114.53;;
8254;SDS011;4167;48.162;11.542;2023-03-20T05:58:56;385.83;;;116.23;;
8254;SDS011;4167;48.162;11.542;2023-03-20T06:01:22;311.57;;;107.77;;
8254;SDS011;4167;48.162;11.542;2023-03-20T06:03:49;489.63;;;134.70;;
8254;SDS011;4167;48.162;11.542;2023-03-20T06:06:16;350.03;;;123.53;;
8254;SDS011;4167;48.162;11.542;2023-03-20T06:08:43;384.07;;;112.87;;
8254;SDS011;4167;48.162;11.542;2023-03-20T06:11:12;380.10;;;128.30;;
8254;SDS011;4167;48.162;11.542;2023-03-20T06:13:38;308.50;;;105.83;;
8254;SDS011;4167;48.162;11.542;2023-03-20T06:16:05;526.10;;;127.07;;
8254;SDS011;4167;48.162;11.542;2023-03-20T06:18:32;311.53;;;102.90;;
8254;SDS011;4167;48.162;11.542;2023-03-20T06:20:59;754.43;;;156.73;;
8254;SDS011;4167;48.162;11.542;2023-03-20T06:23:26;393.80;;;113.50;;
8254;SDS011;4167;48.162;11.542;2023-03-20T06:25:52;415.43;;;117.43;;
8254;SDS011;4167;48.162;11.542;2023-03-20T06:28:20;362.30;;;108.00;;
8254;SDS011;4167;48.162;11.542;2023-03-20T06:30:46;419.00;;;110.87;;
8254;SDS011;4167;48.162;11.542;2023-03-20T06:33:17;452.00;;;127.10;;
8254;SDS011;4167;48.162;11.542;2023-03-20T06:35:44;418.03;;;122.23;;
8254;SDS011;4167;48.162;11.542;2023-03-20T06:38:10;422.27;;;141.40;;
8254;SDS011;4167;48.162;11.542;2023-03-20T06:40:37;366.03;;;113.97;;
8254;SDS011;4167;48.162;11.542;2023-03-20T06:43:04;372.97;;;118.73;;
8254;SDS011;4167;48.162;11.542;2023-03-20T06:45:32;409.70;;;121.43;;
8254;SDS011;4167;48.162;11.542;2023-03-20T06:47:59;467.10;;;130.97;;
8254;SDS011;4167;48.162;11.542;2023-03-20T06:50:25;515.67;;;140.10;;
8254;SDS011;4167;48.162;11.542;2023-03-20T06:52:52;506.07;;;145.97;;
8254;SDS011;4167;48.162;11.542;2023-03-20T06:55:18;602.40;;;159.77;;
8254;SDS011;4167;48.162;11.542;2023-03-20T06:57:45;451.33;;;135.40;;
8254;SDS011;4167;48.162;11.542;2023-03-20T07:00:12;391.87;;;129.00;;
8254;SDS011;4167;48.162;11.542;2023-03-20T07:02:40;452.00;;;127.37;;
8254;SDS011;4167;48.162;11.542;2023-03-20T07:05:08;448.10;;;122.17;;
8254;SDS011;4167;48.162;11.542;2023-03-20T07:07:35;394.97;;;119.97;;
8254;SDS011;4167;48.162;11.542;2023-03-20T07:10:02;397.50;;;124.77;;
8254;SDS011;4167;48.162;11.542;2023-03-20T07:12:28;333.07;;;115.10;;
8254;SDS011;4167;48.162;11.542;2023-03-20T07:14:55;482.03;;;119.43;;
8254;SDS011;4167;48.162;11.542;2023-03-20T07:17:21;458.03;;;128.00;;
8254;SDS011;4167;48.162;11.542;2023-03-20T07:19:49;645.00;;;140.87;;
8254;SDS011;4167;48.162;11.542;2023-03-20T07:22:18;376.07;;;105.80;;
8254;SDS011;4167;48.162;11.542;2023-03-20T07:24:46;428.03;;;108.97;;
8254;SDS011;4167;48.162;11.542;2023-03-20T07:27:13;366.10;;;111.07;;
8254;SDS011;4167;48.162;11.542;2023-03-20T07:29:39;444.87;;;118.70;;
8254;SDS011;4167;48.162;11.542;2023-03-20T07:32:06;409.53;;;119.13;;
8254;SDS011;4167;48.162;11.542;2023-03-20T07:34:32;360.27;;;112.90;;
8254;SDS011;4167;48.162;11.542;2023-03-20T07:37:00;461.40;;;118.43;;
8254;SDS011;4167;48.162;11.542;2023-03-20T07:39:27;378.70;;;119.30;;
8254;SDS011;4167;48.162;11.542;2023-03-20T07:41:54;424.17;;;114.90;;
8254;SDS011;4167;48.162;11.542;2023-03-20T07:44:20;491.00;;;119.93;;
8254;SDS011;4167;48.162;11.542;2023-03-20T07:46:47;409.70;;;117.27;;
8254;SDS011;4167;48.162;11.542;2023-03-20T07:49:13;436.47;;;114.67;;
8254;SDS011;4167;48.162;11.542;2023-03-20T07:51:42;470.70;;;114.00;;
8254;SDS011;4167;48.162;11.542;2023-03-20T07:54:10;642.97;;;140.67;;
8254;SDS011;4167;48.162;11.542;2023-03-20T07:56:36;510.77;;;143.63;;
8254;SDS011;4167;48.162;11.542;2023-03-20T07:59:03;646.40;;;172.13;;
8254;SDS011;4167;48.162;11.542;2023-03-20T08:01:30;635.07;;;197.57;;
8254;SDS011;4167;48.162;11.542;2023-03-20T08:03:56;705.50;;;236.13;;
8254;SDS011;4167;48.162;11.542;2023-03-20T08:06:23;714.77;;;265.40;;
8254;SDS011;4167;48.162;11.542;2023-03-20T08:08:49;743.40;;;287.00;;
8254;SDS011;4167;48.162;11.542;2023-03-20T08:11:18;570.10;;;280.70;;
8254;SDS011;4167;48.162;11.542;2023-03-20T08:13:44;874.43;;;328.93;;
8254;SDS011;4167;48.162;11.542;2023-03-20T08:16:11;803.27;;;341.73;;
8254;SDS011;4167;48.162;11.542;2023-03-20T08:18:38;641.13;;;303.60;;
8254;SDS011;4167;48.162;11.542;2023-03-20T08:21:04;795.20;;;342.00;;
8254;SDS011;4167;48.162;11.542;2023-03-20T08:23:31;556.20;;;288.57;;
8254;SDS011;4167;48.162;11.542;2023-03-20T08:25:58;1049.13;;;330.80;;
8254;SDS011;4167;48.162;11.542;2023-03-20T08:28:26;619.00;;;290.67;;
8254;SDS011;4167;48.162;11.542;2023-03-20T08:30:52;671.43;;;276.00;;
8254;SDS011;4167;48.162;11.542;2023-03-20T08:33:19;725.43;;;301.40;;
8254;SDS011;4167;48.162;11.542;2023-03-20T08:35:53;636.30;;;268.93;;
8254;SDS011;4167;48.162;11.542;2023-03-20T08:38:20;788.13;;;281.73;;
8254;SDS011;4167;48.162;11.542;2023-03-20T08:40:47;692.07;;;269.80;;
8254;SDS011;4167;48.162;11.542;2023-03-20T08:43:14;783.50;;;272.10;;
8254;SDS011;4167;48.162;11.542;2023-03-20T08:45:42;515.73;;;228.03;;
8254;SDS011;4167;48.162;11.542;2023-03-20T08:48:09;633.50;;;258.67;;
8254;SDS011;4167;48.162;11.542;2023-03-20T08:50:36;681.70;;;257.73;;
8254;SDS011;4167;48.162;11.542;2023-03-20T08:53:03;871.23;;;290.83;;
8254;SDS011;4167;48.162;11.542;2023-03-20T08:55:30;929.37;;;314.13;;
8254;SDS011;4167;48.162;11.542;2023-03-20T08:57:57;982.03;;;302.97;;
8254;SDS011;4167;48.162;11.542;2023-03-20T09:00:24;641.90;;;262.03;;
8254;SDS011;4167;48.162;11.542;2023-03-20T09:02:53;862.27;;;283.87;;
8254;SDS011;4167;48.162;11.542;2023-03-20T09:05:19;702.03;;;262.87;;
8254;SDS011;4167;48.162;11.542;2023-03-20T09:07:46;573.30;;;244.50;;
8254;SDS011;4167;48.162;11.542;2023-03-20T09:10:12;641.87;;;250.13;;
8254;SDS011;4167;48.162;11.542;2023-03-20T09:12:39;669.10;;;254.60;;
8254;SDS011;4167;48.162;11.542;2023-03-20T09:15:06;679.77;;;248.23;;
8254;SDS011;4167;48.162;11.542;2023-03-20T09:17:33;744.03;;;255.10;;
8254;SDS011;4167;48.162;11.542;2023-03-20T09:20:01;645.67;;;249.23;;
8254;SDS011;4167;48.162;11.542;2023-03-20T09:22:28;669.47;;;234.03;;
8254;SDS011;4167;48.162;11.542;2023-03-20T09:24:54;721.77;;;251.67;;
8254;SDS011;4167;48.162;11.542;2023-03-20T09:27:21;673.77;;;250.60;;
8254;SDS011;4167;48.162;11.542;2023-03-20T09:29:47;981.17;;;300.23;;
8254;SDS011;4167;48.162;11.542;2023-03-20T09:32:14;879.73;;;276.33;;
8254;SDS011;4167;48.162;11.542;2023-03-20T09:34:41;570.63;;;254.27;;
8254;SDS011;4167;48.162;11.542;2023-03-20T09:37:08;605.27;;;247.37;;
8254;SDS011;4167;48.162;11.542;2023-03-20T09:39:35;681.20;;;251.77;;
8254;SDS011;4167;48.162;11.542;2023-03-20T09:42:03;584.23;;;253.37;;
8254;SDS011;4167;48.162;11.542;2023-03-20T09:44:38;630.33;;;254.80;;
8254;SDS011;4167;48.162;11.542;2023-03-20T09:47:12;761.87;;;260.27;;
8254;SDS011;4167;48.162;11.542;2023-03-20T09:49:44;732.03;;;256.53;;
8254;SDS011;4167;48.162;11.542;2023-03-20T09:52:23;718.63;;;253.00;;
8254;SDS011;4167;48.162;11.542;2023-03-20T09:54:53;646.80;;;250.73;;
8254;SDS011;4167;48.162;11.542;2023-03-20T09:57:23;637.10;;;242.40;;
8254;SDS011;4167;48.162;11.542;2023-03-20T09:59:52;557.10;;;231.03;;
8254;SDS011;4167;48.162;11.542;2023-03-20T10:02:22;588.83;;;188.30;;
8254;SDS011;4167;48.162;11.542;2023-03-20T10:04:55;567.30;;;233.80;;
8254;SDS011;4167;48.162;11.542;2023-03-20T10:07:22;710.03;;;252.93;;
8254;SDS011;4167;48.162;11.542;2023-03-20T10:09:51;682.47;;;254.63;;
8254;SDS011;4167;48.162;11.542;2023-03-20T10:12:23;725.13;;;259.17;;
8254;SDS011;4167;48.162;11.542;2023-03-20T10:14:57;685.57;;;248.27;;
8254;SDS011;4167;48.162;11.542;2023-03-20T10:17:30;689.87;;;245.57;;
8254;SDS011;4167;48.162;11.542;2023-03-20T10:20:09;646.57;;;239.70;;
8254;SDS011;4167;48.162;11.542;2023-03-20T10:22:39;630.77;;;224.33;;
8254;SDS011;4167;48.162;11.542;2023-03-20T10:25:14;669.33;;;239.00;;
8254;SDS011;4167;48.162;11.542;2023-03-20T10:27:45;556.80;;;239.13;;
8254;SDS011;4167;48.162;11.542;2023-03-20T10:30:21;763.63;;;265.00;;
8254;SDS011;4167;48.162;11.542;2023-03-20T10:33:10;633.10;;;244.33;;
8254;SDS011;4167;48.162;11.542;2023-03-20T10:35:44;537.60;;;201.30;;
8254;SDS011;4167;48.162;11.542;2023-03-20T10:38:16;558.63;;;213.83;;
8254;SDS011;4167;48.162;11.542;2023-03-20T10:40:49;707.07;;;250.90;;
8254;SDS011;4167;48.162;11.542;2023-03-20T10:43:17;780.93;;;261.17;;
8254;SDS011;4167;48.162;11.542;2023-03-20T10:45:45;699.37;;;245.53;;
8254;SDS011;4167;48.162;11.542;2023-03-20T10:48:19;859.93;;;265.70;;
8254;SDS011;4167;48.162;11.542;2023-03-20T10:50:49;519.10;;;174.83;;
8254;SDS011;4167;48.162;11.542;2023-03-20T10:53:25;500.80;;;197.57;;
8254;SDS011;4167;48.162;11.542;2023-03-20T10:55:56;869.30;;;226.80;;
8254;SDS011;4167;48.162;11.542;2023-03-20T10:58:27;557.17;;;203.70;;
8254;SDS011;4167;48.162;11.542;2023-03-20T11:00:55;527.63;;;186.53;;
8254;SDS011;4167;48.162;11.542;2023-03-20T11:03:23;610.73;;;190.30;;
8254;SDS011;4167;48.162;11.542;2023-03-20T11:05:52;705.53;;;198.93;;
8254;SDS011;4167;48.162;11.542;2023-03-20T11:08:21;615.60;;;195.50;;
8254;SDS011;4167;48.162;11.542;2023-03-20T11:10:57;661.13;;;211.07;;
8254;SDS011;4167;48.162;11.542;2023-03-20T11:13:25;659.07;;;203.43;;
8254;SDS011;4167;48.162;11.542;2023-03-20T11:15:53;644.10;;;187.57;;
8254;SDS011;4167;48.162;11.542;2023-03-20T11:18:20;563.23;;;195.13;;
8254;SDS011;4167;48.162;11.542;2023-03-20T11:20:50;637.67;;;215.97;;
8254;SDS011;4167;48.162;11.542;2023-03-20T11:23:19;562.93;;;228.93;;
8254;SDS011;4167;48.162;11.542;2023-03-20T11:25:49;804.27;;;266.53;;
8254;SDS011;4167;48.162;11.542;2023-03-20T11:28:20;719.33;;;230.57;;
8254;SDS011;4167;48.162;11.542;2023-03-20T11:30:50;600.70;;;217.57;;
8254;SDS011;4167;48.162;11.542;2023-03-20T11:33:24;625.30;;;223.10;;
8254;SDS011;4167;48.162;11.542;2023-03-20T11:35:51;594.27;;;216.33;;
8254;SDS011;4167;48.162;11.542;2023-03-20T11:38:20;614.40;;;221.53;;
8254;SDS011;4167;48.162;11.542;2023-03-20T11:40:47;605.43;;;231.77;;
8254;SDS011;4167;48.162;11.542;2023-03-20T11:43:17;633.07;;;221.60;;
8254;SDS011;4167;48.162;11.542;2023-03-20T11:45:47;786.70;;;243.77;;
8254;SDS011;4167;48.162;11.542;2023-03-20T11:48:16;603.23;;;201.07;;
8254;SDS011;4167;48.162;11.542;2023-03-20T11:50:45;663.30;;;197.90;;
8254;SDS011;4167;48.162;11.542;2023-03-20T11:53:18;596.73;;;188.37;;
8254;SDS011;4167;48.162;11.542;2023-03-20T11:55:57;724.67;;;212.27;;
8254;SDS011;4167;48.162;11.542;2023-03-20T11:58:28;663.93;;;212.57;;
8254;SDS011;4167;48.162;11.542;2023-03-20T12:00:56;626.57;;;190.50;;
8254;SDS011;4167;48.162;11.542;2023-03-20T12:03:36;644.33;;;205.37;;
8254;SDS011;4167;48.162;11.542;2023-03-20T12:06:12;644.07;;;192.37;;
8254;SDS011;4167;48.162;11.542;2023-03-20T12:08:39;546.27;;;194.53;;
8254;SDS011;4167;48.162;11.542;2023-03-20T12:11:14;570.33;;;197.20;;
8254;SDS011;4167;48.162;11.542;2023-03-20T12:13:47;683.87;;;208.83;;
8254;SDS011;4167;48.162;11.542;2023-03-20T12:16:15;562.77;;;190.57;;
8254;SDS011;4167;48.162;11.542;2023-03-20T12:18:43;728.87;;;221.07;;
8254;SDS011;4167;48.162;11.542;2023-03-20T12:21:11;682.23;;;230.10;;
8254;SDS011;4167;48.162;11.542;2023-03-20T12:23:41;655.57;;;251.30;;
8254;SDS011;4167;48.162;11.542;2023-03-20T12:26:10;618.53;;;220.10;;
8254;SDS011;4167;48.162;11.542;2023-03-20T12:28:39;529.40;;;221.20;;
8254;SDS011;4167;48.162;11.542;2023-03-20T12:31:14;611.37;;;222.70;;
8254;SDS011;4167;48.162;11.542;2023-03-20T12:33:47;618.37;;;223.53;;
8254;SDS011;4167;48.162;11.542;2023-03-20T12:36:16;588.00;;;236.30;;
8254;SDS011;4167;48.162;11.542;2023-03-20T12:38:43;644.00;;;232.10;;
8254;SDS011;4167;48.162;11.542;2023-03-20T12:41:11;590.60;;;239.93;;
8254;SDS011;4167;48.162;11.542;2023-03-20T12:43:57;613.23;;;200.33;;
8254;SDS011;4167;48.162;11.542;2023-03-20T12:46:38;739.37;;;187.60;;
8254;SDS011;4167;48.162;11.542;2023-03-20T12:49:11;639.77;;;195.57;;
8254;SDS011;4167;48.162;11.542;2023-03-20T12:51:47;595.33;;;192.60;;
8254;SDS011;4167;48.162;11.542;2023-03-20T12:54:23;826.07;;;235.47;;
8254;SDS011;4167;48.162;11.542;2023-03-20T12:57:01;773.97;;;226.60;;
8254;SDS011;4167;48.162;11.542;2023-03-20T12:59:34;607.70;;;206.97;;
8254;SDS011;4167;48.162;11.542;2023-03-20T13:02:13;585.93;;;208.20;;
8254;SDS011;4167;48.162;11.542;2023-03-20T13:04:47;679.93;;;218.03;;
8254;SDS011;4167;48.162;11.542;2023-03-20T13:07:18;715.07;;;213.83;;
8254;SDS011;4167;48.162;11.542;2023-03-20T13:09:48;736.43;;;239.27;;
8254;SDS011;4167;48.162;11.542;2023-03-20T13:12:24;542.30;;;210.17;;
8254;SDS011;4167;48.162;11.542;2023-03-20T13:14:58;813.83;;;241.87;;
8254;SDS011;4167;48.162;11.542;2023-03-20T13:17:32;681.80;;;214.13;;
8254;SDS011;4167;48.162;11.542;2023-03-20T13:20:08;659.70;;;211.10;;
8254;SDS011;4167;48.162;11.542;2023-03-20T13:22:46;704.30;;;210.60;;
8254;SDS011;4167;48.162;11.542;2023-03-20T13:25:21;547.47;;;195.97;;
8254;SDS011;4167;48.162;11.542;2023-03-20T13:28:00;633.20;;;206.80;;
8254;SDS011;4167;48.162;11.542;2023-03-20T13:30:33;516.33;;;206.93;;
8254;SDS011;4167;48.162;11.542;2023-03-20T13:33:08;655.07;;;227.67;;
8254;SDS011;4167;48.162;11.542;2023-03-20T13:35:42;667.70;;;240.00;;
8254;SDS011;4167;48.162;11.542;2023-03-20T13:38:13;584.83;;;219.80;;
8254;SDS011;4167;48.162;11.542;2023-03-20T13:40:42;566.97;;;214.27;;
8254;SDS011;4167;48.162;11.542;2023-03-20T13:43:12;601.07;;;228.33;;
8254;SDS011;4167;48.162;11.542;2023-03-20T13:45:45;617.73;;;220.17;;
8254;SDS011;4167;48.162;11.542;2023-03-20T13:48:20;641.77;;;236.97;;
8254;SDS011;4167;48.162;11.542;2023-03-20T13:50:51;749.87;;;248.27;;
8254;SDS011;4167;48.162;11.542;2023-03-20T13:53:24;644.43;;;231.60;;
8254;SDS011;4167;48.162;11.542;2023-03-20T13:55:57;735.33;;;238.83;;
8254;SDS011;4167;48.162;11.542;2023-03-20T13:58:34;514.97;;;174.10;;
8254;SDS011;4167;48.162;11.542;2023-03-20T14:01:06;708.57;;;211.50;;
8254;SDS011;4167;48.162;11.542;2023-03-20T14:03:39;617.47;;;215.97;;
8254;SDS011;4167;48.162;11.542;2023-03-20T14:06:17;742.30;;;234.87;;
8254;SDS011;4167;48.162;11.542;2023-03-20T14:08:51;847.77;;;257.47;;
8254;SDS011;4167;48.162;11.542;2023-03-20T14:11:25;556.37;;;207.83;;
8254;SDS011;4167;48.162;11.542;2023-03-20T14:13:57;807.97;;;232.13;;
8254;SDS011;4167;48.162;11.542;2023-03-20T14:16:26;553.70;;;213.50;;
8254;SDS011;4167;48.162;11.542;2023-03-20T14:19:04;860.07;;;240.60;;
8254;SDS011;4167;48.162;11.542;2023-03-20T14:21:32;703.67;;;209.93;;
8254;SDS011;4167;48.162;11.542;2023-03-20T14:24:01;851.63;;;233.07;;
8254;SDS011;4167;48.162;11.542;2023-03-20T14:26:29;681.83;;;201.13;;
8254;SDS011;4167;48.162;11.542;2023-03-20T14:28:58;838.83;;;212.17;;
8254;SDS011;4167;48.162;11.542;2023-03-20T14:31:28;576.53;;;184.93;;
8254;SDS011;4167;48.162;11.542;2023-03-20T14:33:58;632.33;;;201.47;;
8254;SDS011;4167;48.162;11.542;2023-03-20T14:36:28;691.87;;;202.27;;
8254;SDS011;4167;48.162;11.542;2023-03-20T14:38:57;671.83;;;213.30;;